Historique des mesures à Cassis (13260), France
Quotidien Résumé Mars 16, 2018 Unités:  Métrique    US   Métrique/US
« Précédent (Jour)
Suivant (Jour) »
Quotidien Hebdomadaire Mensuel Annuel Période au choix
  Maximum: Minimum: Moyenne:
Température: TemperatureC °C 9.8 °C 12.6 °C
Point de rosée: DewpointC °C 6.9 °C 9.2 °C
Humidité: Humidity % 73 % 76 %
Vitesse du vent: 0 km/h 0 km/h 2.9 km/h
Rafales: 0 km/h - -
Vent:- - SSW
Pression: PressurehPa hPa 997.2 hPa -
Précipitations: 0.0 mm    
Historical Graphs
 
 
Mesures pour : Mars 16, 2018
Heure Temperature Point de rosée Pression Vent Vitesse du vent Rafales Humidité Pluie (par heure) Conditions
TemperatureC °C DewpointC °C PressurehPa hPa Calm     Humidity % HourlyPrecipMM mm SoftwareType W/m2
00:12 12.3 °C 9.5 °C 997.2 hPa Calm     83 % 0.0 mm open2300-1.11 W/m2
01:11 11.2 °C 8.4 °C 997.9 hPa NNW 3.4 km/h 6.4 km/h 83 % 0.0 mm open2300-1.11 W/m2
02:11 10.4 °C 7.8 °C 998.2 hPa North 6.4 km/h 16.9 km/h 84 % 0.0 mm open2300-1.11 W/m2
03:11 10.5 °C 7.9 °C 998.2 hPa North 4.2 km/h 6.4 km/h 84 % 0.0 mm open2300-1.11 W/m2
04:12 10.1 °C 7.7 °C 998.2 hPa NNW 3.4 km/h 9.3 km/h 85 % 0.0 mm open2300-1.11 W/m2
05:11 9.8 °C 7.3 °C 998.2 hPa NNW 3.4 km/h 6.4 km/h 85 % 0.0 mm open2300-1.11 W/m2
06:12 10.0 °C 7.2 °C 998.5 hPa NNW 5.6 km/h 5.6 km/h 83 % 0.0 mm open2300-1.11 W/m2
07:11 9.9 °C 6.9 °C 998.9 hPa Calm   4.2 km/h 82 % 0.0 mm open2300-1.11 W/m2
08:12 11.2 °C 7.5 °C 998.9 hPa Calm     78 % 0.0 mm open2300-1.11 W/m2
09:11 12.5 °C 8.4 °C 999.2 hPa Calm   5.1 km/h 76 % 0.0 mm open2300-1.11 W/m2
10:12 13.4 °C 9.6 °C 999.9 hPa Calm   7.6 km/h 78 % 0.0 mm open2300-1.11 W/m2
11:11 15.5 °C 11.1 °C 999.9 hPa SSW 8 km/h 8 km/h 75 % 0.0 mm open2300-1.11 W/m2
12:11 16.4 °C 11.6 °C 999.5 hPa ESE 5.6 km/h 5.6 km/h 73 % 0.0 mm open2300-1.11 W/m2
13:12 16.6 °C 11.9 °C 999.9 hPa South 5.6 km/h 6.4 km/h 74 % 0.0 mm open2300-1.11 W/m2
14:11 16.5 °C 12.1 °C 999.5 hPa ESE 2.3 km/h 10.3 km/h 75 % 0.0 mm open2300-1.11 W/m2
15:12 16.1 °C 11.7 °C 998.9 hPa SSE 7.6 km/h 9.3 km/h 75 % 0.0 mm open2300-1.11 W/m2
16:12 15.8 °C 11.4 °C 997.9 hPa SW 5.1 km/h 5.1 km/h 75 % 0.0 mm open2300-1.11 W/m2
17:11 15.2 °C 10.8 °C 997.5 hPa Calm     75 % 0.0 mm open2300-1.11 W/m2
18:11 14.8 °C 10.8 °C 997.2 hPa West 4.2 km/h 4.2 km/h 77 % 0.0 mm open2300-1.11 W/m2
19:12 13.6 °C 9.8 °C 998.2 hPa Calm     78 % 0.0 mm open2300-1.11 W/m2
20:12 13.2 °C 9.8 °C 998.5 hPa Calm     80 % 0.0 mm open2300-1.11 W/m2
21:12 13.4 °C 10.0 °C 998.5 hPa Calm   3.4 km/h 80 % 0.0 mm open2300-1.11 W/m2
22:12 13.4 °C 10.4 °C 997.9 hPa Calm   2.3 km/h 82 % 0.0 mm open2300-1.11 W/m2
23:12 13.4 °C 10.2 °C 997.2 hPa ESE 6.4 km/h 6.4 km/h 81 % 0.0 mm open2300-1.11 W/m2
Observations météo à CASSIS
WU-History script by Weather Underground - 1 mb